Hoboken, Belgium
Current Conditions -  °F | °C
As of 1:20 PM on Wednesday 28 Jan 2015 (Local Time) from EBAW Reporting Station
Light Rain Light Rain  
Wind Chill:   Ceiling: 1600
Heat Index:   Visibility: 6mi
Dew Point:   Wind: 22mph
Humidity: 76%   Direction: 210°SSW
Pressure: 29.59"   Gusts: 35mph
Location:  51.18°N, 4.35°E
Report Text: EBAW 281220Z 21019G30KT 9999 -RA BKN016 07/03 Q1002 TEMPO BKN013
Loading
Personal Weather Stations






























Interactive Weather Map New forecast layout! Learn more

10-Day Weather Forecast

Advertisements
Track Severe Weather on mobile